Time;durP1;ratioP1;P1;durP2;ratioP2;P2;SDS_P1;SDS_P2;PMS_P1;PMS_P2;Temp;Humidity;BMP_temperature;BMP_pressure;BME280_temperature;BME280_humidity;BME280_pressure;Samples;Min_cycle;Max_cycle;Signal;HPM_P1;HPM_P2
2022/11/09 00:01:55;;;;;;;;;52.33;40.67;;;;;7.65;100.00;100178.88;6295636;20;3599221;-70
2022/11/09 00:04:24;;;;;;;;;55.33;41.00;;;;;7.73;100.00;100170.53;6297984;20;3627341;-69
2022/11/09 00:06:54;;;;;;;;;68.00;41.33;;;;;7.79;100.00;100162.25;6294877;20;3645072;-70
2022/11/09 00:09:23;;;;;;;;;55.33;40.33;;;;;7.73;100.00;100174.06;6296730;20;3623874;-70
2022/11/09 00:11:53;;;;;;;;;58.00;42.67;;;;;7.52;100.00;100174.97;6300300;20;3633650;-70
2022/11/09 00:14:23;;;;;;;;;56.67;38.33;;;;;7.77;100.00;100170.34;6298551;20;3625340;-69
2022/11/09 00:16:52;;;;;;;;;58.00;42.00;;;;;7.64;100.00;100170.00;6293276;20;3629422;-71
2022/11/09 00:19:23;;;;;;;;;54.67;38.67;;;;;7.57;100.00;100157.81;6297277;20;3624193;-70
2022/11/09 00:21:52;;;;;;;;;58.00;40.00;;;;;7.42;100.00;100170.00;6296777;20;2857658;-71
2022/11/09 00:24:22;;;;;;;;;55.33;44.00;;;;;7.72;100.00;100179.50;6295052;20;3615858;-69
2022/11/09 00:26:51;;;;;;;;;61.00;44.00;;;;;7.67;100.00;100183.22;6297416;20;3630503;-71
2022/11/09 00:29:21;;;;;;;;;62.00;41.00;;;;;7.62;100.00;100182.53;6296113;20;3631585;-71
2022/11/09 00:31:50;;;;;;;;;61.67;46.33;;;;;7.52;100.00;100173.16;6262177;20;2881668;-71
2022/11/09 00:34:20;;;;;;;;;54.33;38.00;;;;;7.50;100.00;100180.38;6294084;20;2891147;-70
2022/11/09 00:36:48;;;;;;;;;58.33;44.00;;;;;7.56;100.00;100177.47;6300508;20;3618043;-70
2022/11/09 00:39:18;;;;;;;;;62.33;44.00;;;;;7.31;100.00;100174.91;6262663;20;3629466;-69
2022/11/09 00:41:47;;;;;;;;;64.00;42.00;;;;;7.46;100.00;100176.09;6295745;20;3633554;-71
2022/11/09 00:44:16;;;;;;;;;69.00;48.50;;;;;7.43;100.00;100170.88;6293505;20;3528412;-70
2022/11/09 00:46:46;;;;;;;;;64.33;44.00;;;;;7.26;100.00;100172.41;6294138;20;3629893;-71
2022/11/09 00:49:15;;;;;;;;;58.67;45.67;;;;;7.47;100.00;100183.16;6293837;20;3634624;-71
2022/11/09 00:51:45;;;;;;;;;66.00;48.33;;;;;7.44;100.00;100169.94;6297984;20;3637769;-70
2022/11/09 00:54:16;;;;;;;;;62.33;46.67;;;;;7.30;100.00;100170.50;6263102;20;3631535;-70
2022/11/09 00:56:45;;;;;;;;;57.00;41.67;;;;;7.43;100.00;100168.22;6303233;20;3612797;-70
2022/11/09 00:59:14;;;;;;;;;61.00;45.33;;;;;7.35;100.00;100165.84;6266015;20;3631670;-71
2022/11/09 01:01:44;;;;;;;;;59.00;43.33;;;;;7.55;100.00;100170.34;6292444;20;3637765;-69
2022/11/09 01:04:13;;;;;;;;;65.33;40.33;;;;;7.41;100.00;100175.41;6298050;20;3624297;-71
2022/11/09 01:06:42;;;;;;;;;67.67;48.33;;;;;7.36;100.00;100167.56;6296410;20;3643968;-69
2022/11/09 01:09:12;;;;;;;;;64.00;44.00;;;;;7.31;100.00;100156.22;6263543;20;3640959;-71
2022/11/09 01:11:41;;;;;;;;;58.67;39.67;;;;;7.42;100.00;100167.31;6296570;20;3620052;-70
2022/11/09 01:14:11;;;;;;;;;58.67;40.33;;;;;7.24;100.00;100154.72;6294915;20;3615911;-69
2022/11/09 01:16:40;;;;;;;;;60.67;45.67;;;;;7.25;100.00;100152.00;6292855;20;3636729;-70
2022/11/09 01:19:09;;;;;;;;;55.50;40.50;;;;;7.46;100.00;100165.41;6262911;20;2866055;-68
2022/11/09 01:21:38;;;;;;;;;64.67;44.00;;;;;7.25;100.00;100152.00;6262227;20;3616959;-71
2022/11/09 01:24:09;;;;;;;;;55.33;41.67;;;;;7.49;100.00;100154.59;6296877;20;3609603;-71
2022/11/09 01:26:38;;;;;;;;;69.75;49.00;;;;;7.49;100.00;100154.59;6300347;20;3632540;-69
2022/11/09 01:29:08;;;;;;;;;62.33;44.00;;;;;7.30;100.00;100133.13;6295249;20;3628518;-68
2022/11/09 01:31:37;;;;;;;;;78.00;51.00;;;;;7.33;100.00;100154.34;6291263;20;3658697;-70
2022/11/09 01:34:06;;;;;;;;;58.33;41.67;;;;;7.31;100.00;100142.00;6263602;20;3641032;-70
2022/11/09 01:36:36;;;;;;;;;58.67;40.00;;;;;7.25;100.00;100138.63;6264167;20;3625359;-69
2022/11/09 01:39:05;;;;;;;;;63.33;39.67;;;;;7.28;100.00;100140.31;6297338;20;3635778;-70
2022/11/09 01:41:35;;;;;;;;;54.00;38.67;;;;;7.24;100.00;100128.00;6297402;20;2859828;-70
2022/11/09 01:44:15;;;;;;;;;67.33;44.67;;;;;7.22;100.00;100130.75;6296162;20;3636704;-71
2022/11/09 01:47:11;;;;;;;;;68.00;48.00;;;;;7.27;100.00;100135.91;6296537;20;3653395;-71
2022/11/09 01:49:58;;;;;;;;;69.00;44.00;;;;;7.21;100.00;100142.38;6263521;20;2876475;-69
2022/11/09 01:52:36;;;;;;;;;64.00;43.33;;;;;7.15;100.00;100137.25;6296867;20;3638762;-69
2022/11/09 01:55:17;;;;;;;;;62.67;41.00;;;;;7.33;100.00;100145.47;6296296;20;3628362;-69
2022/11/09 01:58:06;;;;;;;;;62.67;42.00;;;;;7.43;100.00;100137.03;6293141;20;3637749;-70
2022/11/09 02:00:37;;;;;;;;;61.33;41.00;;;;;7.28;100.00;100134.97;6295619;20;3617976;-70
2022/11/09 02:03:32;;;;;;;;;65.67;46.33;;;;;7.40;100.00;100130.94;6261327;20;3630481;-70
2022/11/09 02:06:07;;;;;;;;;58.33;38.00;;;;;7.50;100.00;100123.41;6297243;20;3625370;-69
2022/11/09 02:08:38;;;;;;;;;62.00;41.00;;;;;7.34;100.00;100118.69;6294897;20;3636687;-71
2022/11/09 02:11:19;;;;;;;;;70.33;45.00;;;;;7.57;100.00;100117.72;6291848;20;3651294;-69
2022/11/09 02:13:57;;;;;;;;;51.67;38.00;;;;;7.33;100.00;100116.97;6260667;20;3611841;-69
2022/11/09 02:16:28;;;;;;;;;62.67;41.67;;;;;7.26;100.00;100115.47;6290910;20;3628495;-70
2022/11/09 02:19:02;;;;;;;;;58.00;44.00;;;;;7.46;100.00;100118.19;6295175;20;3615854;-69
2022/11/09 02:21:32;;;;;;;;;57.00;41.33;;;;;7.54;100.00;100115.19;6296148;20;3646113;-69
2022/11/09 02:24:01;;;;;;;;;57.00;39.00;;;;;7.32;100.00;100114.34;6261266;20;3634692;-70
2022/11/09 02:26:45;;;;;;;;;67.33;52.00;;;;;7.49;100.00;100109.19;6295038;20;3629554;-71
2022/11/09 02:29:28;;;;;;;;;59.00;40.00;;;;;7.49;100.00;100111.84;6263707;20;3642078;-71
2022/11/09 02:32:04;;;;;;;;;53.33;35.33;;;;;7.48;100.00;100110.13;6295317;20;3620547;-70
2022/11/09 02:34:34;;;;;;;;;53.00;37.33;;;;;7.45;100.00;100104.88;6261645;20;3627350;-70
2022/11/09 02:37:03;;;;;;;;;57.33;39.00;;;;;7.34;100.00;100116.00;6293890;20;3612811;-71
2022/11/09 02:39:34;;;;;;;;;48.33;36.67;;;;;7.29;100.00;100103.78;6293841;20;3612759;-70
2022/11/09 02:42:16;;;;;;;;;62.33;39.00;;;;;7.36;100.00;100113.28;6292179;20;3625309;-70
2022/11/09 02:44:57;;;;;;;;;63.33;45.33;;;;;7.39;100.00;100110.50;6292565;20;3631502;-70
2022/11/09 02:47:27;;;;;;;;;56.00;38.00;;;;;7.32;100.00;100111.66;6296053;20;3632545;-71
2022/11/09 02:49:56;;;;;;;;;57.00;35.00;;;;;7.23;100.00;100110.25;6294864;20;3637738;-71
2022/11/09 02:52:26;;;;;;;;;49.67;36.00;;;;;7.21;100.00;100107.66;6293071;20;3610822;-68
2022/11/09 02:54:56;;;;;;;;;51.67;38.00;;;;;7.42;100.00;100116.56;6294041;20;2862832;-70
2022/11/09 02:57:25;;;;;;;;;60.00;42.00;;;;;7.35;100.00;100108.91;6296260;20;3637755;-69
2022/11/09 02:59:55;;;;;;;;;52.00;37.67;;;;;7.51;100.00;100111.78;6257577;20;2869114;-70
2022/11/09 03:02:24;;;;;;;;;57.33;44.00;;;;;7.51;100.00;100103.78;6298319;20;2870109;-72
2022/11/09 03:04:54;;;;;;;;;54.33;40.33;;;;;7.45;100.00;100105.78;6293891;20;3629513;-71
2022/11/09 03:07:23;;;;;;;;;63.33;44.00;;;;;7.42;100.00;100100.53;6292395;20;3645302;-70
2022/11/09 03:09:53;;;;;;;;;63.67;42.00;;;;;7.39;100.00;100105.16;6293207;20;3649877;-71
2022/11/09 03:12:28;;;;;;;;;51.00;36.67;;;;;7.60;100.00;100112.25;6261072;20;3634715;-71
2022/11/09 03:15:06;;;;;;;;;58.00;38.00;;;;;7.36;100.00;100102.59;6296358;20;3635650;-71
2022/11/09 03:17:36;;;;;;;;;78.25;50.00;;;;;7.41;100.00;100098.81;6296735;20;4409644;-71
2022/11/09 03:20:07;;;;;;;;;52.33;38.67;;;;;7.38;100.00;100106.09;6293778;20;3615038;-70
2022/11/09 03:22:36;;;;;;;;;71.67;50.00;;;;;7.16;100.00;100096.31;6292312;20;3639878;-71
2022/11/09 03:25:07;;;;;;;;;66.00;42.00;;;;;7.20;100.00;100095.22;6293575;20;3646177;-73
2022/11/09 03:27:36;;;;;;;;;55.00;41.33;;;;;7.39;100.00;100100.66;6261460;20;2857775;-70
2022/11/09 03:30:07;;;;;;;;;58.00;40.33;;;;;7.46;100.00;100095.94;6294703;20;3620149;-69
2022/11/09 03:32:39;;;;;;;;;56.00;38.00;;;;;7.51;100.00;100107.31;6293752;20;3630627;-70
2022/11/09 03:35:08;;;;;;;;;51.00;35.50;;;;;7.35;100.00;100098.22;6295083;20;2483588;-70
2022/11/09 03:37:36;;;;;;;;;43.00;35.00;;;;;7.33;100.00;100095.59;6260663;20;2853516;-70
2022/11/09 03:40:07;;;;;;;;;41.67;36.67;;;;;7.22;100.00;100098.72;6261968;20;2848197;-72
2022/11/09 03:42:36;;;;;;;;;47.33;30.33;;;;;7.38;100.00;100106.09;6293446;20;3613798;-70
2022/11/09 03:45:06;;;;;;;;;42.50;33.00;;;;;7.45;100.00;100104.88;6291559;20;2839907;-69
2022/11/09 03:47:41;;;;;;;;;42.67;34.33;;;;;7.32;100.00;100109.88;6261054;20;2856657;-70
2022/11/09 03:50:16;;;;;;;;;44.33;36.33;;;;;7.47;100.00;100108.34;6289681;20;2860883;-70
2022/11/09 03:52:46;;;;;;;;;46.00;35.50;;;;;7.38;100.00;100114.97;6289948;20;2858716;-70
2022/11/09 03:55:16;;;;;;;;;42.33;32.67;;;;;7.32;100.00;100115.22;6259173;20;2859828;-68
2022/11/09 03:57:45;;;;;;;;;37.67;31.33;;;;;7.09;100.00;100109.97;6292513;20;2849249;-72
2022/11/09 04:00:18;;;;;;;;;38.00;32.50;;;;;7.25;100.00;100106.59;6288858;20;2853489;-71
2022/11/09 04:02:47;;;;;;;;;43.00;34.50;;;;;7.20;100.00;100103.22;6259655;20;2845152;-70
2022/11/09 04:05:16;;;;;;;;;41.00;30.33;;;;;7.29;100.00;100103.78;6258879;20;2865968;-70
2022/11/09 04:07:56;;;;;;;;;38.33;29.67;;;;;7.09;100.00;100096.63;6285218;20;3601441;-71
2022/11/09 04:10:26;;;;;;;;;35.00;30.50;;;;;7.12;100.00;100094.66;6293381;20;2838967;-71
2022/11/09 04:12:54;;;;;;;;;38.00;35.50;;;;;7.21;100.00;100102.31;6266125;20;2848226;-70
2022/11/09 04:15:24;;;;;;;;;46.67;37.00;;;;;7.19;100.00;100097.97;6266795;20;3606559;-71
2022/11/09 04:17:59;;;;;;;;;44.33;32.67;;;;;7.07;100.00;100083.31;6300149;20;3615882;-71
2022/11/09 04:20:31;;;;;;;;;48.00;38.33;;;;;7.29;100.00;100087.75;6265904;20;2858655;-71
2022/11/09 04:23:04;;;;;;;;;43.33;29.00;;;;;7.12;100.00;100102.69;6294999;20;2874343;-70
2022/11/09 04:25:36;;;;;;;;;46.33;36.33;;;;;6.92;100.00;100089.25;6298086;20;3607665;-69
2022/11/09 04:28:10;;;;;;;;;54.33;38.00;;;;;7.10;100.00;100088.53;6264313;20;3606640;-70
2022/11/09 04:30:40;;;;;;;;;56.67;41.67;;;;;6.91;100.00;100091.06;6293803;20;3643655;-71
2022/11/09 04:33:09;;;;;;;;;45.67;36.33;;;;;7.18;100.00;100093.53;6261596;20;2855481;-70
2022/11/09 04:35:38;;;;;;;;;49.67;38.00;;;;;7.02;100.00;100088.81;6292336;20;2869106;-71
2022/11/09 04:38:12;;;;;;;;;52.33;35.00;;;;;7.10;100.00;100093.00;6294580;20;3621060;-70
2022/11/09 04:40:41;;;;;;;;;44.00;37.00;;;;;6.96;100.00;100088.22;6293009;20;2847282;-69
2022/11/09 04:43:14;;;;;;;;;44.00;33.67;;;;;6.90;100.00;100080.44;6261582;20;2853514;-71
2022/11/09 04:45:44;;;;;;;;;46.33;30.33;;;;;6.93;100.00;100091.03;6293775;20;3640055;-70
2022/11/09 04:48:13;;;;;;;;;43.67;29.00;;;;;6.81;100.00;100082.56;6295681;20;2868172;-70
2022/11/09 04:50:47;;;;;;;;;45.67;32.67;;;;;6.97;100.00;100084.59;6291147;20;2862901;-73
2022/11/09 04:53:16;;;;;;;;;36.00;30.67;;;;;6.97;100.00;100084.59;6294440;20;2848188;-70
2022/11/09 04:55:45;;;;;;;;;42.50;32.00;;;;;6.76;100.00;100092.53;6293272;20;2842005;-70
2022/11/09 04:58:14;;;;;;;;;46.00;34.67;;;;;7.13;100.00;100092.88;6263312;20;2842129;-71
2022/11/09 05:00:50;;;;;;;;;49.67;36.00;;;;;7.13;100.00;100093.72;6291023;20;3606507;-72
2022/11/09 05:03:21;;;;;;;;;48.67;36.67;;;;;7.01;100.00;100094.25;6294045;20;2864922;-71
2022/11/09 05:05:50;;;;;;;;;34.33;28.33;;;;;6.94;100.00;100095.41;6294298;20;3588809;-71
2022/11/09 05:08:19;;;;;;;;;51.00;35.33;;;;;7.06;100.00;100096.72;6259177;20;2869146;-71
2022/11/09 05:10:48;;;;;;;;;49.00;36.00;;;;;7.14;100.00;100100.81;6290159;20;3599212;-71
2022/11/09 05:13:17;;;;;;;;;34.67;34.67;;;;;7.08;100.00;100100.19;6295032;20;3577403;-71
2022/11/09 05:15:47;;;;;;;;;47.00;31.67;;;;;6.87;100.00;100092.09;6294597;20;2876617;-70
2022/11/09 05:18:16;;;;;;;;;51.33;30.33;;;;;6.71;100.00;100091.84;6296729;20;3630628;-68
2022/11/09 05:20:45;;;;;;;;;44.00;37.67;;;;;6.88;100.00;100082.31;6294246;20;3602388;-70
2022/11/09 05:26:02;;;;;;;;;50.00;39.00;;;;;6.97;100.00;100084.59;6265397;20;3620170;-70
2022/11/09 05:28:34;;;;;;;;;55.00;39.33;;;;;6.94;100.00;100095.41;6293534;20;3615989;-69
2022/11/09 05:31:04;;;;;;;;;48.67;37.67;;;;;7.14;100.00;100103.50;6291752;20;3599308;-71
2022/11/09 05:33:34;;;;;;;;;52.33;35.67;;;;;7.09;100.00;100089.47;6290197;20;3618050;-70
2022/11/09 05:36:02;;;;;;;;;59.67;41.67;;;;;7.21;100.00;100105.00;6297709;20;3627828;-71
2022/11/09 05:38:35;;;;;;;;;56.00;41.33;;;;;7.28;100.00;100102.06;6264178;20;2871362;-70
2022/11/09 05:41:03;;;;;;;;;55.33;41.00;;;;;7.17;100.00;100100.69;6297751;20;3604457;-70
2022/11/09 05:43:33;;;;;;;;;59.00;41.00;;;;;7.10;100.00;100107.22;6261894;20;3638350;-70
2022/11/09 05:46:02;;;;;;;;;42.33;36.67;;;;;7.28;100.00;100115.41;6294018;20;2861838;-70
2022/11/09 05:48:35;;;;;;;;;48.00;34.00;;;;;7.04;100.00;100111.00;6291236;20;3603420;-70
2022/11/09 05:51:08;;;;;;;;;66.33;45.00;;;;;7.22;100.00;100112.06;6292702;20;3652418;-69
2022/11/09 05:53:38;;;;;;;;;54.33;39.33;;;;;7.28;100.00;100112.75;6257878;20;2873413;-71
2022/11/09 05:56:14;;;;;;;;;49.00;37.33;;;;;7.31;100.00;100118.81;6297118;20;3595264;-69
2022/11/09 05:58:44;;;;;;;;;55.67;41.33;;;;;7.26;100.00;100112.78;6294836;20;2857748;-69
2022/11/09 06:01:18;;;;;;;;;70.67;51.00;;;;;7.33;100.00;100111.63;6289509;20;3648232;-71
2022/11/09 06:03:47;;;;;;;;;72.33;51.67;;;;;7.37;100.00;100115.91;6261055;20;3634589;-70
2022/11/09 06:06:17;;;;;;;;;93.75;73.25;;;;;7.28;100.00;100123.44;6292268;20;4440940;-69
2022/11/09 06:08:46;;;;;;;;;123.00;97.00;;;;;7.12;100.00;100118.69;6293636;20;3705450;-72
2022/11/09 06:11:19;;;;;;;;;76.00;56.33;;;;;7.34;100.00;100123.16;6256236;20;3651329;-70
2022/11/09 06:13:52;;;;;;;;;126.00;94.33;;;;;7.43;100.00;100128.13;6296817;20;3708587;-70
2022/11/09 06:16:22;;;;;;;;;88.00;64.25;;;;;7.42;100.00;100131.72;6260142;20;4414957;-68
2022/11/09 06:18:51;;;;;;;;;71.33;51.00;;;;;7.35;100.00;100127.59;6289622;20;3648182;-69
2022/11/09 06:21:19;;;;;;;;;174.50;140.00;;;;;7.33;100.00;100121.44;6253474;20;1947163;-72
2022/11/09 06:23:50;;;;;;;;;111.75;85.25;;;;;7.46;100.00;100125.34;6258595;20;3702453;-69
2022/11/09 06:26:19;;;;;;;;;209.50;171.75;;;;;7.38;100.00;100130.13;6261843;20;4473133;-68
2022/11/09 06:28:49;;;;;;;;;82.33;54.33;;;;;7.35;100.00;100124.91;6257974;20;3654412;-70
2022/11/09 06:31:19;;;;;;;;;95.00;75.00;;;;;7.52;100.00;100133.09;6260543;20;3673254;-70
2022/11/09 06:33:49;;;;;;;;;154.67;119.00;;;;;7.64;100.00;100123.69;6259342;20;3721195;-70
2022/11/09 06:36:20;;;;;;;;;133.00;102.33;;;;;7.79;100.00;100125.69;6251615;20;3720120;-70
2022/11/09 06:38:53;;;;;;;;;73.00;51.67;;;;;7.74;100.00;100135.75;6257263;20;3625360;-72
2022/11/09 06:41:20;;;;;;;;;79.50;55.50;;;;;7.59;100.00;100128.38;6292043;20;1916952;-71
2022/11/09 06:43:51;;;;;;;;;113.25;93.00;;;;;7.42;100.00;100137.06;6256441;20;4475279;-69
2022/11/09 06:46:19;;;;;;;;;125.50;95.50;;;;;7.72;100.00;100144.75;6289127;20;1956749;-69
2022/11/09 06:48:49;;;;;;;;;136.00;111.67;;;;;7.68;100.00;100125.28;6257403;20;3699284;-69
2022/11/09 06:51:23;;;;;;;;;62.00;45.00;;;;;7.61;100.00;100129.16;6290509;20;3635623;-69
2022/11/09 06:53:52;;;;;;;;;85.25;60.50;;;;;7.77;100.00;100138.28;6289323;20;4397073;-69
2022/11/09 06:56:22;;;;;;;;;75.75;56.75;;;;;7.79;100.00;100143.53;6278119;20;3639948;-68
2022/11/09 06:58:51;;;;;;;;;84.25;61.50;;;;;7.79;100.00;100138.19;6292966;20;4414961;-69
2022/11/09 07:01:27;;;;;;;;;81.00;59.67;;;;;7.98;100.00;100136.47;6289264;20;3652466;-69
2022/11/09 07:03:57;;;;;;;;;81.75;58.25;;;;;8.06;100.00;100131.66;6258385;20;4409084;-69
2022/11/09 07:06:27;;;;;;;;;110.50;88.75;;;;;7.93;100.00;100138.47;6289810;20;4444023;-68
2022/11/09 07:08:57;;;;;;;;;131.33;108.67;;;;;8.03;100.00;100139.81;6257968;20;3711743;-68
2022/11/09 07:11:25;;;;;;;;;91.00;70.00;;;;;7.97;100.00;100142.75;6288357;20;1934724;-69
2022/11/09 07:13:56;;;;;;;;;164.50;132.00;;;;;8.10;100.00;100137.72;6257254;20;3716958;-68
2022/11/09 07:16:26;;;;;;;;;83.33;60.00;;;;;8.07;100.00;100129.84;6262720;20;3669116;-68
2022/11/09 07:18:56;;;;;;;;;84.33;56.00;;;;;7.87;100.00;100138.72;6258183;20;3654461;-68
2022/11/09 07:21:25;;;;;;;;;91.33;72.33;;;;;7.96;100.00;100137.47;6255449;20;3678444;-68
2022/11/09 07:23:55;;;;;;;;;153.33;113.00;;;;;8.02;100.00;100135.38;6261588;20;3718052;-68
2022/11/09 07:26:24;;;;;;;;;90.00;67.00;;;;;8.01;100.00;100128.31;6257485;20;3676333;-69
2022/11/09 07:28:54;;;;;;;;;339.25;270.50;;;;;8.07;100.00;100135.19;6262845;20;4505503;-68
2022/11/09 07:31:28;;;;;;;;;152.67;118.33;;;;;8.20;100.00;100130.19;6260716;20;3716378;-68
2022/11/09 07:33:57;;;;;;;;;100.50;77.00;;;;;8.06;100.00;100129.00;6254978;20;1940952;-68
2022/11/09 07:36:26;;;;;;;;;116.67;82.00;;;;;8.16;100.00;100123.22;6260636;20;3704456;-70
2022/11/09 07:38:56;;;;;;;;;209.00;155.25;;;;;7.89;100.00;100116.34;6259551;20;4476398;-69
2022/11/09 07:41:24;;;;;;;;;204.00;162.50;;;;;8.24;100.00;100126.41;6253949;20;1956628;-70
2022/11/09 07:44:00;;;;;;;;;171.00;132.50;;;;;8.09;100.00;100117.28;6261634;20;1946095;-68
2022/11/09 08:48:25;;;;;;;;;74.33;53.00;;;;;8.55;100.00;100086.63;6241511;20;3617993;-68
2022/11/09 08:50:58;;;;;;;;;77.25;54.75;;;;;8.85;100.00;100096.00;6261776;20;3635905;-68
2022/11/09 08:53:29;;;;;;;;;74.67;54.33;;;;;8.77;100.00;100093.69;6265470;20;3642047;-68
2022/11/09 08:55:58;;;;;;;;;75.67;54.33;;;;;8.72;100.00;100104.59;6255502;20;3644006;-68
2022/11/09 08:58:28;;;;;;;;;76.67;58.67;;;;;8.64;100.00;100104.09;6285204;20;3653535;-68
2022/11/09 09:00:58;;;;;;;;;69.33;51.67;;;;;8.75;100.00;100106.25;6257177;20;3641971;-69
2022/11/09 09:03:27;;;;;;;;;71.00;54.00;;;;;8.97;100.00;100117.66;6294902;20;3630650;-68
2022/11/09 09:05:56;;;;;;;;;78.33;57.00;;;;;8.88;100.00;100106.56;6259785;20;3647207;-66
2022/11/09 09:08:25;;;;;;;;;78.75;59.75;;;;;9.06;100.00;100102.09;6270948;20;4404570;-65
2022/11/09 09:10:54;;;;;;;;;69.67;53.33;;;;;9.17;100.00;100107.81;6303316;20;3630485;-65
2022/11/09 09:13:23;;;;;;;;;81.25;59.25;;;;;9.31;100.00;100105.31;6269438;20;3660813;-65
2022/11/09 09:15:52;;;;;;;;;68.67;54.00;;;;;9.09;100.00;100107.34;6302881;20;3613829;-66
2022/11/09 09:18:22;;;;;;;;;75.00;57.00;;;;;9.01;100.00;100108.56;6269121;20;3634663;-66
2022/11/09 09:20:52;;;;;;;;;70.00;51.33;;;;;9.06;100.00;100104.78;6301616;20;3623284;-66
2022/11/09 09:23:21;;;;;;;;;67.00;53.00;;;;;9.06;100.00;100115.50;6302010;20;3623311;-66
2022/11/09 09:25:51;;;;;;;;;74.50;54.50;;;;;9.19;100.00;100111.31;6270970;20;4384626;-65
2022/11/09 09:28:26;;;;;;;;;68.67;50.00;;;;;8.93;100.00;100108.06;6302378;20;3627514;-65
2022/11/09 09:31:00;;;;;;;;;73.67;55.33;;;;;9.41;100.00;100111.97;6267949;20;3630458;-66
2022/11/09 09:33:28;;;;;;;;;68.50;50.00;;;;;9.28;100.00;100109.97;6297689;20;2687207;-65
2022/11/09 09:35:58;;;;;;;;;70.33;53.33;;;;;9.09;100.00;100110.00;6303909;20;3631503;-65
2022/11/09 09:38:29;;;;;;;;;82.75;60.75;;;;;9.34;100.00;100110.50;6270327;20;4406472;-65
2022/11/09 09:41:02;;;;;;;;;70.67;54.00;;;;;9.29;100.00;100107.19;6302016;20;3625274;-65
2022/11/09 09:43:43;;;;;;;;;79.50;58.50;;;;;9.37;100.00;100102.34;6273802;20;3651404;-65
2022/11/09 09:46:26;;;;;;;;;85.25;58.75;;;;;9.60;100.00;100117.25;6301702;20;4405606;-65
2022/11/09 09:49:26;;;;;;;;;76.00;56.75;;;;;9.47;100.00;100107.22;6301906;20;4388789;-65
2022/11/09 09:52:30;;;;;;;;;83.75;61.50;;;;;9.49;100.00;100097.31;6300049;20;4407515;-65
2022/11/09 09:55:30;;;;;;;;;79.00;58.50;;;;;9.52;100.00;100097.16;6298095;20;4404451;-65
2022/11/09 09:58:13;;;;;;;;;73.00;55.33;;;;;9.44;100.00;100094.84;6295894;20;3632689;-65
2022/11/09 10:00:43;;;;;;;;;76.33;55.00;;;;;9.52;100.00;100097.16;6265466;20;3641979;-63
2022/11/09 10:03:19;;;;;;;;;81.50;64.50;;;;;9.52;100.00;100070.34;6299140;20;4408625;-65
2022/11/09 10:06:36;;;;;;;;;69.33;53.00;;;;;9.46;100.00;100087.63;6297379;20;3605524;-64
2022/11/09 10:10:11;;;;;;;;;75.67;60.67;;;;;9.47;100.00;100077.75;6297243;20;3625346;-65
2022/11/09 10:13:14;;;;;;;;;71.75;53.50;;;;;9.50;100.00;100078.44;6271045;20;3640066;-65
2022/11/09 10:16:22;;;;;;;;;76.67;53.33;;;;;9.41;100.00;100073.56;6299411;20;3631513;-65
2022/11/09 10:19:32;;;;;;;;;75.67;57.33;;;;;9.77;100.00;100076.19;6301709;20;3638826;-65
2022/11/09 10:22:36;;;;;;;;;77.67;57.67;;;;;9.84;100.00;100063.31;6268528;20;3637894;-65
2022/11/09 10:25:26;;;;;;;;;73.33;53.67;;;;;9.71;100.00;100065.75;6297588;20;3615917;-65
2022/11/09 10:28:17;;;;;;;;;77.67;56.67;;;;;9.61;100.00;100080.59;6265849;20;3647142;-65
2022/11/09 10:30:47;;;;;;;;;79.67;63.67;;;;;9.84;100.00;100074.91;6264531;20;3632548;-65
2022/11/09 10:33:20;;;;;;;;;61.67;49.00;;;;;9.64;100.00;100086.69;6300741;20;3620058;-64
2022/11/09 10:36:50;;;;;;;;;73.00;57.00;;;;;9.87;100.00;100077.44;6246903;20;3600245;-65
2022/11/09 10:39:24;;;;;;;;;82.00;62.33;;;;;9.64;100.00;100072.41;6242579;20;3663850;-65
2022/11/09 10:41:54;;;;;;;;;75.33;55.33;;;;;9.84;100.00;100074.03;6243522;20;3636725;-65
2022/11/09 10:44:23;;;;;;;;;71.33;53.33;;;;;9.63;100.00;100063.47;6264286;20;3637754;-65
2022/11/09 10:47:15;;;;;;;;;81.00;57.00;;;;;9.77;100.00;100054.72;6269628;20;4409640;-65
2022/11/09 10:49:45;;;;;;;;;84.00;59.25;;;;;9.75;100.00;100051.25;6282556;20;4414010;-65
2022/11/09 10:52:41;;;;;;;;;56.00;45.67;;;;;9.46;100.00;100055.44;6280997;20;3606492;-65
2022/11/09 10:55:27;;;;;;;;;71.33;55.33;;;;;9.72;100.00;100062.16;6279944;20;3602440;-65
2022/11/09 10:58:34;;;;;;;;;76.67;58.33;;;;;9.75;100.00;100050.41;6247332;20;3647127;-65
2022/11/09 11:01:14;;;;;;;;;75.00;55.67;;;;;9.54;100.00;100044.34;6249438;20;3629531;-65
2022/11/09 11:03:48;;;;;;;;;75.33;54.67;;;;;9.60;100.00;100050.22;6286546;20;3620189;-65
2022/11/09 11:06:21;;;;;;;;;70.33;54.00;;;;;9.52;100.00;100051.59;6254994;20;3617974;-65
2022/11/09 11:08:57;;;;;;;;;70.00;52.00;;;;;9.36;100.00;100049.69;6255591;20;3642085;-65
2022/11/09 11:11:33;;;;;;;;;64.67;50.00;;;;;9.57;100.00;100053.06;6253125;20;3637783;-66
2022/11/09 11:16:44;;;;;;;;;71.67;55.00;;;;;9.49;100.00;100043.72;6260239;20;3611928;-58
2022/11/09 11:19:43;;;;;;;;;70.67;55.00;;;;;9.94;100.00;100035.06;6270234;20;3615867;-58
2022/11/09 11:22:13;;;;;;;;;71.67;54.00;;;;;9.81;100.00;100036.66;6271921;20;3629459;-58
2022/11/09 11:25:04;;;;;;;;;66.33;49.67;;;;;9.52;100.00;100032.81;6308647;20;3627777;-58
2022/11/09 11:27:52;;;;;;;;;72.25;54.25;;;;;9.85;100.00;100041.78;6309194;20;3632589;-58
2022/11/09 11:30:36;;;;;;;;;69.00;53.00;;;;;9.85;100.00;100036.44;6138221;20;3618081;-58
2022/11/09 11:33:20;;;;;;;;;79.00;58.25;;;;;9.81;100.00;100029.47;6152748;20;4413869;-58
2022/11/09 11:36:35;;;;;;;;;68.67;52.67;;;;;9.81;100.00;100023.25;6135795;20;3625636;-58
2022/11/09 11:39:30;;;;;;;;;73.25;54.00;;;;;9.58;100.00;100027.13;6291029;20;3635723;-68
2022/11/09 11:42:13;;;;;;;;;71.67;54.00;;;;;9.90;100.00;100036.19;6300046;20;3606509;-69
2022/11/09 11:45:13;;;;;;;;;363.50;289.00;;;;;9.80;100.00;100027.75;6264273;20;1968949;-66
2022/11/09 11:48:48;;;;;;;;;80.00;58.00;;;;;9.91;100.00;100029.84;6247555;20;3653405;-67
2022/11/09 11:52:36;;;;;;;;;70.67;53.67;;;;;9.67;100.00;100024.00;5832755;20;3617069;-68
2022/11/09 11:56:18;;;;;;;;;79.00;57.67;;;;;9.89;100.00;100021.03;6229441;20;3626339;-59
2022/11/09 11:59:15;;;;;;;;;72.33;56.00;;;;;9.59;100.00;100012.81;6267929;20;3631537;-60
2022/11/09 12:02:31;;;;;;;;;76.75;56.75;;;;;9.93;100.00;100016.38;6306840;20;4409609;-59
2022/11/09 12:06:04;;;;;;;;;78.00;59.00;;;;;9.92;100.00;100010.13;6307604;20;3653481;-58
2022/11/09 12:09:32;;;;;;;;;73.67;56.00;;;;;9.79;100.00;100011.72;6306356;20;3633391;-59
2022/11/09 12:12:06;;;;;;;;;72.33;55.00;;;;;9.59;100.00;100012.81;6275996;20;3628402;-58
2022/11/09 12:15:24;;;;;;;;;80.50;59.25;;;;;9.66;100.00;100003.47;6281083;20;4422109;-59
2022/11/09 12:18:33;;;;;;;;;81.00;58.50;;;;;9.79;100.00;100004.53;6309436;20;3653654;-59
2022/11/09 12:22:00;;;;;;;;;74.00;55.75;;;;;9.56;100.00;100007.59;6310260;20;3638039;-59
2022/11/09 12:24:57;;;;;;;;;78.00;58.75;;;;;9.64;100.00;100002.69;6307015;20;4402335;-59
2022/11/09 12:27:53;;;;;;;;;81.75;59.00;;;;;9.52;100.00;99996.16;6310115;20;4407504;-60
2022/11/09 12:30:58;;;;;;;;;78.67;58.67;;;;;9.79;100.00;99999.19;6274930;20;3631539;-59
2022/11/09 12:34:09;;;;;;;;;80.00;56.67;;;;;9.66;100.00;99993.63;6279296;20;3662816;-59
2022/11/09 12:36:49;;;;;;;;;71.00;51.33;;;;;9.41;100.00;99972.59;6262013;20;3632577;-69
2022/11/09 12:39:39;;;;;;;;;73.00;52.33;;;;;9.60;100.00;99987.72;6274575;20;3616918;-69
2022/11/09 12:42:27;;;;;;;;;82.75;63.75;;;;;9.75;100.00;99983.38;6275511;20;4405453;-68